sensor_id;sensor_type;location;lat;lon;timestamp;P1;durP1;ratioP1;P2;durP2;ratioP2
84523;SDS011;74765;44.538;18.668;2024-03-02T00:00:26;78.68;;;34.60;;
84523;SDS011;74765;44.538;18.668;2024-03-02T00:02:52;82.97;;;37.55;;
84523;SDS011;74765;44.538;18.668;2024-03-02T00:05:18;88.20;;;37.35;;
84523;SDS011;74765;44.538;18.668;2024-03-02T00:07:55;108.32;;;43.67;;
84523;SDS011;74765;44.538;18.668;2024-03-02T00:10:23;86.63;;;38.47;;
84523;SDS011;74765;44.538;18.668;2024-03-02T00:12:54;92.65;;;37.08;;
84523;SDS011;74765;44.538;18.668;2024-03-02T00:17:55;107.05;;;47.33;;
84523;SDS011;74765;44.538;18.668;2024-03-02T00:20:22;97.68;;;44.35;;
84523;SDS011;74765;44.538;18.668;2024-03-02T00:22:51;93.18;;;43.55;;
84523;SDS011;74765;44.538;18.668;2024-03-02T00:25:16;85.13;;;40.13;;
84523;SDS011;74765;44.538;18.668;2024-03-02T00:27:47;90.97;;;40.38;;
84523;SDS011;74765;44.538;18.668;2024-03-02T00:33:06;83.13;;;35.80;;
84523;SDS011;74765;44.538;18.668;2024-03-02T00:35:32;82.38;;;38.25;;
84523;SDS011;74765;44.538;18.668;2024-03-02T00:38:01;70.88;;;31.75;;
84523;SDS011;74765;44.538;18.668;2024-03-02T00:40:32;70.47;;;30.45;;
84523;SDS011;74765;44.538;18.668;2024-03-02T00:42:58;84.53;;;36.40;;
84523;SDS011;74765;44.538;18.668;2024-03-02T00:45:24;74.72;;;33.88;;
84523;SDS011;74765;44.538;18.668;2024-03-02T00:47:51;84.18;;;36.53;;
84523;SDS011;74765;44.538;18.668;2024-03-02T00:50:17;84.00;;;36.28;;
84523;SDS011;74765;44.538;18.668;2024-03-02T00:52:44;76.30;;;35.00;;
84523;SDS011;74765;44.538;18.668;2024-03-02T00:55:10;68.78;;;32.22;;
84523;SDS011;74765;44.538;18.668;2024-03-02T00:57:36;63.45;;;26.15;;
84523;SDS011;74765;44.538;18.668;2024-03-02T01:00:02;66.78;;;28.45;;
84523;SDS011;74765;44.538;18.668;2024-03-02T01:02:29;56.25;;;27.80;;
84523;SDS011;74765;44.538;18.668;2024-03-02T01:04:55;58.78;;;28.48;;
84523;SDS011;74765;44.538;18.668;2024-03-02T01:07:21;59.13;;;28.65;;
84523;SDS011;74765;44.538;18.668;2024-03-02T01:09:47;57.22;;;26.85;;
84523;SDS011;74765;44.538;18.668;2024-03-02T01:12:12;59.65;;;28.65;;
84523;SDS011;74765;44.538;18.668;2024-03-02T01:14:38;62.53;;;28.85;;
84523;SDS011;74765;44.538;18.668;2024-03-02T01:17:04;62.65;;;28.10;;
84523;SDS011;74765;44.538;18.668;2024-03-02T01:19:30;60.45;;;27.38;;
84523;SDS011;74765;44.538;18.668;2024-03-02T01:21:55;57.92;;;26.25;;
84523;SDS011;74765;44.538;18.668;2024-03-02T01:24:22;56.53;;;26.13;;
84523;SDS011;74765;44.538;18.668;2024-03-02T01:26:47;58.65;;;27.95;;
84523;SDS011;74765;44.538;18.668;2024-03-02T01:29:13;61.70;;;27.98;;
84523;SDS011;74765;44.538;18.668;2024-03-02T01:31:39;52.80;;;26.73;;
84523;SDS011;74765;44.538;18.668;2024-03-02T01:34:08;56.33;;;26.83;;
84523;SDS011;74765;44.538;18.668;2024-03-02T01:36:33;56.15;;;28.52;;
84523;SDS011;74765;44.538;18.668;2024-03-02T01:38:59;60.13;;;28.67;;
84523;SDS011;74765;44.538;18.668;2024-03-02T01:41:26;58.83;;;28.58;;
84523;SDS011;74765;44.538;18.668;2024-03-02T01:43:52;58.50;;;28.45;;
84523;SDS011;74765;44.538;18.668;2024-03-02T01:46:18;54.53;;;28.35;;
84523;SDS011;74765;44.538;18.668;2024-03-02T01:48:43;57.72;;;28.23;;
84523;SDS011;74765;44.538;18.668;2024-03-02T01:51:09;64.18;;;26.63;;
84523;SDS011;74765;44.538;18.668;2024-03-02T01:53:35;54.67;;;27.33;;
84523;SDS011;74765;44.538;18.668;2024-03-02T01:56:02;58.40;;;27.92;;
84523;SDS011;74765;44.538;18.668;2024-03-02T01:58:28;56.35;;;28.02;;
84523;SDS011;74765;44.538;18.668;2024-03-02T02:00:54;51.03;;;24.42;;
84523;SDS011;74765;44.538;18.668;2024-03-02T02:03:19;50.03;;;23.40;;
84523;SDS011;74765;44.538;18.668;2024-03-02T02:05:45;39.47;;;19.25;;
84523;SDS011;74765;44.538;18.668;2024-03-02T02:08:13;59.00;;;23.88;;
84523;SDS011;74765;44.538;18.668;2024-03-02T02:10:39;58.28;;;25.77;;
84523;SDS011;74765;44.538;18.668;2024-03-02T02:13:04;57.92;;;26.35;;
84523;SDS011;74765;44.538;18.668;2024-03-02T02:15:30;45.72;;;22.63;;
84523;SDS011;74765;44.538;18.668;2024-03-02T02:17:57;57.13;;;26.73;;
84523;SDS011;74765;44.538;18.668;2024-03-02T02:20:23;55.08;;;27.25;;
84523;SDS011;74765;44.538;18.668;2024-03-02T02:22:56;57.13;;;25.80;;
84523;SDS011;74765;44.538;18.668;2024-03-02T02:25:23;60.70;;;27.45;;
84523;SDS011;74765;44.538;18.668;2024-03-02T02:27:49;54.97;;;25.50;;
84523;SDS011;74765;44.538;18.668;2024-03-02T02:30:18;61.83;;;27.33;;
84523;SDS011;74765;44.538;18.668;2024-03-02T02:32:45;52.25;;;24.90;;
84523;SDS011;74765;44.538;18.668;2024-03-02T02:35:10;39.72;;;19.02;;
84523;SDS011;74765;44.538;18.668;2024-03-02T02:37:36;35.75;;;17.08;;
84523;SDS011;74765;44.538;18.668;2024-03-02T02:40:02;42.95;;;18.33;;
84523;SDS011;74765;44.538;18.668;2024-03-02T02:42:30;38.00;;;18.77;;
84523;SDS011;74765;44.538;18.668;2024-03-02T02:44:55;40.63;;;19.15;;
84523;SDS011;74765;44.538;18.668;2024-03-02T02:47:21;50.40;;;22.92;;
84523;SDS011;74765;44.538;18.668;2024-03-02T02:49:47;54.72;;;26.70;;
84523;SDS011;74765;44.538;18.668;2024-03-02T02:52:13;69.95;;;28.40;;
84523;SDS011;74765;44.538;18.668;2024-03-02T02:54:38;66.68;;;29.80;;
84523;SDS011;74765;44.538;18.668;2024-03-02T02:57:04;65.78;;;29.48;;
84523;SDS011;74765;44.538;18.668;2024-03-02T02:59:30;59.65;;;28.42;;
84523;SDS011;74765;44.538;18.668;2024-03-02T03:01:55;62.17;;;29.67;;
84523;SDS011;74765;44.538;18.668;2024-03-02T03:04:21;56.55;;;27.77;;
84523;SDS011;74765;44.538;18.668;2024-03-02T03:06:47;63.63;;;28.40;;
84523;SDS011;74765;44.538;18.668;2024-03-02T03:09:13;56.65;;;28.70;;
84523;SDS011;74765;44.538;18.668;2024-03-02T03:11:38;58.83;;;27.20;;
84523;SDS011;74765;44.538;18.668;2024-03-02T03:14:04;55.08;;;26.83;;
84523;SDS011;74765;44.538;18.668;2024-03-02T03:16:30;47.55;;;22.83;;
84523;SDS011;74765;44.538;18.668;2024-03-02T03:18:56;52.90;;;24.83;;
84523;SDS011;74765;44.538;18.668;2024-03-02T03:21:22;45.13;;;23.10;;
84523;SDS011;74765;44.538;18.668;2024-03-02T03:23:48;53.25;;;24.23;;
84523;SDS011;74765;44.538;18.668;2024-03-02T03:26:14;50.72;;;21.67;;
84523;SDS011;74765;44.538;18.668;2024-03-02T03:28:40;50.40;;;22.58;;
84523;SDS011;74765;44.538;18.668;2024-03-02T03:31:06;53.42;;;24.10;;
84523;SDS011;74765;44.538;18.668;2024-03-02T03:33:32;53.25;;;23.25;;
84523;SDS011;74765;44.538;18.668;2024-03-02T03:35:58;55.70;;;25.73;;
84523;SDS011;74765;44.538;18.668;2024-03-02T03:38:23;49.50;;;21.25;;
84523;SDS011;74765;44.538;18.668;2024-03-02T03:40:49;49.45;;;22.20;;
84523;SDS011;74765;44.538;18.668;2024-03-02T03:43:15;44.85;;;21.77;;
84523;SDS011;74765;44.538;18.668;2024-03-02T03:45:40;49.00;;;23.50;;
84523;SDS011;74765;44.538;18.668;2024-03-02T03:48:07;44.97;;;22.85;;
84523;SDS011;74765;44.538;18.668;2024-03-02T03:50:32;45.10;;;22.90;;
84523;SDS011;74765;44.538;18.668;2024-03-02T03:52:58;44.38;;;22.50;;
84523;SDS011;74765;44.538;18.668;2024-03-02T03:55:24;47.90;;;21.70;;
84523;SDS011;74765;44.538;18.668;2024-03-02T03:57:49;43.10;;;20.67;;
84523;SDS011;74765;44.538;18.668;2024-03-02T04:00:15;40.72;;;19.15;;
84523;SDS011;74765;44.538;18.668;2024-03-02T04:02:41;36.75;;;17.48;;
84523;SDS011;74765;44.538;18.668;2024-03-02T04:05:07;39.78;;;19.33;;
84523;SDS011;74765;44.538;18.668;2024-03-02T04:07:36;40.28;;;19.25;;
84523;SDS011;74765;44.538;18.668;2024-03-02T04:10:06;44.67;;;21.67;;
84523;SDS011;74765;44.538;18.668;2024-03-02T04:12:34;46.00;;;22.83;;
84523;SDS011;74765;44.538;18.668;2024-03-02T04:15:01;43.45;;;22.50;;
84523;SDS011;74765;44.538;18.668;2024-03-02T04:17:27;44.00;;;21.05;;
84523;SDS011;74765;44.538;18.668;2024-03-02T04:19:52;46.90;;;21.25;;
84523;SDS011;74765;44.538;18.668;2024-03-02T04:22:20;44.88;;;21.17;;
84523;SDS011;74765;44.538;18.668;2024-03-02T04:24:45;44.05;;;21.13;;
84523;SDS011;74765;44.538;18.668;2024-03-02T04:27:11;43.47;;;21.35;;
84523;SDS011;74765;44.538;18.668;2024-03-02T04:29:37;47.90;;;22.63;;
84523;SDS011;74765;44.538;18.668;2024-03-02T04:32:02;44.28;;;19.70;;
84523;SDS011;74765;44.538;18.668;2024-03-02T04:34:28;43.85;;;19.98;;
84523;SDS011;74765;44.538;18.668;2024-03-02T04:36:54;42.92;;;19.52;;
84523;SDS011;74765;44.538;18.668;2024-03-02T04:39:20;43.80;;;20.33;;
84523;SDS011;74765;44.538;18.668;2024-03-02T04:41:45;42.50;;;19.75;;
84523;SDS011;74765;44.538;18.668;2024-03-02T04:44:11;38.13;;;18.88;;
84523;SDS011;74765;44.538;18.668;2024-03-02T04:46:37;36.67;;;18.65;;
84523;SDS011;74765;44.538;18.668;2024-03-02T04:49:02;37.78;;;18.08;;
84523;SDS011;74765;44.538;18.668;2024-03-02T04:51:28;39.92;;;19.67;;
84523;SDS011;74765;44.538;18.668;2024-03-02T04:53:54;41.38;;;19.45;;
84523;SDS011;74765;44.538;18.668;2024-03-02T04:56:19;38.17;;;18.23;;
84523;SDS011;74765;44.538;18.668;2024-03-02T04:58:51;42.78;;;19.10;;
84523;SDS011;74765;44.538;18.668;2024-03-02T05:01:17;45.58;;;22.05;;
84523;SDS011;74765;44.538;18.668;2024-03-02T05:03:43;44.28;;;21.05;;
84523;SDS011;74765;44.538;18.668;2024-03-02T05:06:08;38.10;;;19.98;;
84523;SDS011;74765;44.538;18.668;2024-03-02T05:08:35;37.67;;;19.38;;
84523;SDS011;74765;44.538;18.668;2024-03-02T05:11:00;39.80;;;19.45;;
84523;SDS011;74765;44.538;18.668;2024-03-02T05:13:46;34.67;;;19.00;;
84523;SDS011;74765;44.538;18.668;2024-03-02T05:16:12;41.97;;;22.52;;
84523;SDS011;74765;44.538;18.668;2024-03-02T05:18:38;48.40;;;24.42;;
84523;SDS011;74765;44.538;18.668;2024-03-02T05:21:03;44.78;;;23.58;;
84523;SDS011;74765;44.538;18.668;2024-03-02T05:23:29;46.38;;;24.00;;
84523;SDS011;74765;44.538;18.668;2024-03-02T05:25:56;46.10;;;23.15;;
84523;SDS011;74765;44.538;18.668;2024-03-02T05:28:21;48.45;;;23.00;;
84523;SDS011;74765;44.538;18.668;2024-03-02T05:30:47;47.80;;;22.20;;
84523;SDS011;74765;44.538;18.668;2024-03-02T05:33:13;44.42;;;22.70;;
84523;SDS011;74765;44.538;18.668;2024-03-02T05:35:39;49.40;;;24.50;;
84523;SDS011;74765;44.538;18.668;2024-03-02T05:38:05;57.13;;;27.27;;
84523;SDS011;74765;44.538;18.668;2024-03-02T05:40:30;52.15;;;25.25;;
84523;SDS011;74765;44.538;18.668;2024-03-02T05:42:56;49.88;;;25.80;;
84523;SDS011;74765;44.538;18.668;2024-03-02T05:45:22;47.95;;;21.55;;
84523;SDS011;74765;44.538;18.668;2024-03-02T05:47:47;55.33;;;25.65;;
84523;SDS011;74765;44.538;18.668;2024-03-02T05:50:13;68.32;;;32.72;;
84523;SDS011;74765;44.538;18.668;2024-03-02T05:52:39;62.17;;;31.35;;
84523;SDS011;74765;44.538;18.668;2024-03-02T05:55:04;49.25;;;22.92;;
84523;SDS011;74765;44.538;18.668;2024-03-02T05:57:30;41.33;;;20.08;;
84523;SDS011;74765;44.538;18.668;2024-03-02T06:00:19;44.58;;;23.00;;
84523;SDS011;74765;44.538;18.668;2024-03-02T06:02:45;43.10;;;23.27;;
84523;SDS011;74765;44.538;18.668;2024-03-02T06:05:11;47.08;;;23.08;;
84523;SDS011;74765;44.538;18.668;2024-03-02T06:07:37;49.03;;;23.75;;
84523;SDS011;74765;44.538;18.668;2024-03-02T06:10:02;50.50;;;27.40;;
84523;SDS011;74765;44.538;18.668;2024-03-02T06:12:30;52.55;;;30.27;;
84523;SDS011;74765;44.538;18.668;2024-03-02T06:14:57;49.55;;;22.30;;
84523;SDS011;74765;44.538;18.668;2024-03-02T06:17:23;47.22;;;22.95;;
84523;SDS011;74765;44.538;18.668;2024-03-02T06:19:49;48.65;;;21.95;;
84523;SDS011;74765;44.538;18.668;2024-03-02T06:22:14;61.22;;;28.27;;
84523;SDS011;74765;44.538;18.668;2024-03-02T06:24:40;52.00;;;23.88;;
84523;SDS011;74765;44.538;18.668;2024-03-02T06:27:06;56.05;;;28.02;;
84523;SDS011;74765;44.538;18.668;2024-03-02T06:29:34;55.90;;;27.90;;
84523;SDS011;74765;44.538;18.668;2024-03-02T06:32:00;53.20;;;25.83;;
84523;SDS011;74765;44.538;18.668;2024-03-02T06:34:26;52.72;;;26.13;;
84523;SDS011;74765;44.538;18.668;2024-03-02T06:36:51;55.38;;;26.38;;
84523;SDS011;74765;44.538;18.668;2024-03-02T06:39:17;65.80;;;32.38;;
84523;SDS011;74765;44.538;18.668;2024-03-02T06:41:43;55.47;;;28.67;;
84523;SDS011;74765;44.538;18.668;2024-03-02T06:44:08;48.35;;;24.10;;
84523;SDS011;74765;44.538;18.668;2024-03-02T06:46:34;47.90;;;24.55;;
84523;SDS011;74765;44.538;18.668;2024-03-02T06:49:00;39.80;;;19.17;;
84523;SDS011;74765;44.538;18.668;2024-03-02T06:51:27;48.97;;;24.60;;
84523;SDS011;74765;44.538;18.668;2024-03-02T06:53:53;51.72;;;25.20;;
84523;SDS011;74765;44.538;18.668;2024-03-02T06:56:19;51.83;;;23.80;;
84523;SDS011;74765;44.538;18.668;2024-03-02T06:58:44;47.33;;;24.25;;
84523;SDS011;74765;44.538;18.668;2024-03-02T07:01:10;54.67;;;24.60;;
84523;SDS011;74765;44.538;18.668;2024-03-02T07:03:36;39.20;;;21.90;;
84523;SDS011;74765;44.538;18.668;2024-03-02T07:06:02;42.78;;;22.95;;
84523;SDS011;74765;44.538;18.668;2024-03-02T07:08:28;40.10;;;20.90;;
84523;SDS011;74765;44.538;18.668;2024-03-02T07:10:53;41.80;;;20.50;;
84523;SDS011;74765;44.538;18.668;2024-03-02T07:13:19;39.65;;;20.73;;
84523;SDS011;74765;44.538;18.668;2024-03-02T07:15:45;42.38;;;22.75;;
84523;SDS011;74765;44.538;18.668;2024-03-02T07:18:29;38.88;;;19.45;;
84523;SDS011;74765;44.538;18.668;2024-03-02T07:21:09;31.48;;;18.35;;
84523;SDS011;74765;44.538;18.668;2024-03-02T07:23:35;36.55;;;18.40;;
84523;SDS011;74765;44.538;18.668;2024-03-02T07:26:00;35.28;;;17.92;;
84523;SDS011;74765;44.538;18.668;2024-03-02T07:28:27;34.88;;;17.20;;
84523;SDS011;74765;44.538;18.668;2024-03-02T07:31:02;35.55;;;18.33;;
84523;SDS011;74765;44.538;18.668;2024-03-02T07:33:30;37.95;;;20.75;;
84523;SDS011;74765;44.538;18.668;2024-03-02T07:35:56;37.55;;;20.88;;
84523;SDS011;74765;44.538;18.668;2024-03-02T07:38:23;37.33;;;19.65;;
84523;SDS011;74765;44.538;18.668;2024-03-02T07:40:49;37.45;;;20.02;;
84523;SDS011;74765;44.538;18.668;2024-03-02T07:43:20;37.00;;;19.23;;
84523;SDS011;74765;44.538;18.668;2024-03-02T07:45:47;39.97;;;20.75;;
84523;SDS011;74765;44.538;18.668;2024-03-02T07:48:14;36.97;;;18.75;;
84523;SDS011;74765;44.538;18.668;2024-03-02T07:50:40;33.63;;;19.73;;
84523;SDS011;74765;44.538;18.668;2024-03-02T07:53:06;29.13;;;18.05;;
84523;SDS011;74765;44.538;18.668;2024-03-02T07:55:33;30.08;;;18.33;;
84523;SDS011;74765;44.538;18.668;2024-03-02T07:58:00;32.10;;;18.58;;
84523;SDS011;74765;44.538;18.668;2024-03-02T08:00:26;35.45;;;19.73;;
84523;SDS011;74765;44.538;18.668;2024-03-02T08:02:53;33.22;;;19.08;;
84523;SDS011;74765;44.538;18.668;2024-03-02T08:05:19;41.15;;;20.63;;
84523;SDS011;74765;44.538;18.668;2024-03-02T08:07:45;38.60;;;21.33;;
84523;SDS011;74765;44.538;18.668;2024-03-02T08:10:11;34.55;;;20.88;;
84523;SDS011;74765;44.538;18.668;2024-03-02T08:12:38;42.80;;;23.85;;
84523;SDS011;74765;44.538;18.668;2024-03-02T08:15:03;51.53;;;28.35;;
84523;SDS011;74765;44.538;18.668;2024-03-02T08:17:30;49.97;;;29.08;;
84523;SDS011;74765;44.538;18.668;2024-03-02T08:19:56;42.13;;;26.30;;
84523;SDS011;74765;44.538;18.668;2024-03-02T08:22:22;41.33;;;24.98;;
84523;SDS011;74765;44.538;18.668;2024-03-02T08:24:50;37.70;;;22.77;;
84523;SDS011;74765;44.538;18.668;2024-03-02T08:27:16;32.88;;;20.95;;
84523;SDS011;74765;44.538;18.668;2024-03-02T08:29:42;33.50;;;21.35;;
84523;SDS011;74765;44.538;18.668;2024-03-02T08:32:08;34.13;;;20.05;;
84523;SDS011;74765;44.538;18.668;2024-03-02T08:34:33;32.20;;;19.27;;
84523;SDS011;74765;44.538;18.668;2024-03-02T08:37:01;32.50;;;17.80;;
84523;SDS011;74765;44.538;18.668;2024-03-02T08:39:27;32.75;;;19.27;;
84523;SDS011;74765;44.538;18.668;2024-03-02T08:41:53;37.13;;;19.33;;
84523;SDS011;74765;44.538;18.668;2024-03-02T08:44:19;34.83;;;19.45;;
84523;SDS011;74765;44.538;18.668;2024-03-02T08:46:45;29.77;;;18.45;;
84523;SDS011;74765;44.538;18.668;2024-03-02T08:49:12;36.65;;;16.75;;
84523;SDS011;74765;44.538;18.668;2024-03-02T08:51:38;25.15;;;15.23;;
84523;SDS011;74765;44.538;18.668;2024-03-02T08:54:04;25.35;;;14.90;;
84523;SDS011;74765;44.538;18.668;2024-03-02T08:56:30;22.70;;;13.15;;
84523;SDS011;74765;44.538;18.668;2024-03-02T08:58:56;21.23;;;14.82;;
84523;SDS011;74765;44.538;18.668;2024-03-02T09:01:22;28.17;;;16.10;;
84523;SDS011;74765;44.538;18.668;2024-03-02T09:03:48;27.92;;;15.73;;
84523;SDS011;74765;44.538;18.668;2024-03-02T09:06:17;29.48;;;14.55;;
84523;SDS011;74765;44.538;18.668;2024-03-02T09:08:43;17.35;;;11.27;;
84523;SDS011;74765;44.538;18.668;2024-03-02T09:11:09;14.45;;;7.35;;
84523;SDS011;74765;44.538;18.668;2024-03-02T09:13:38;11.70;;;5.97;;
84523;SDS011;74765;44.538;18.668;2024-03-02T09:16:04;9.55;;;5.65;;
84523;SDS011;74765;44.538;18.668;2024-03-02T09:18:30;13.00;;;7.35;;
84523;SDS011;74765;44.538;18.668;2024-03-02T09:20:56;12.57;;;7.65;;
84523;SDS011;74765;44.538;18.668;2024-03-02T09:23:22;12.93;;;6.68;;
84523;SDS011;74765;44.538;18.668;2024-03-02T09:25:48;13.43;;;6.90;;
84523;SDS011;74765;44.538;18.668;2024-03-02T09:28:16;17.13;;;9.40;;
84523;SDS011;74765;44.538;18.668;2024-03-02T09:30:42;13.65;;;7.55;;
84523;SDS011;74765;44.538;18.668;2024-03-02T09:33:08;10.70;;;6.35;;
84523;SDS011;74765;44.538;18.668;2024-03-02T09:35:34;13.98;;;7.78;;
84523;SDS011;74765;44.538;18.668;2024-03-02T09:37:59;12.20;;;7.10;;
84523;SDS011;74765;44.538;18.668;2024-03-02T09:40:25;13.93;;;7.15;;
84523;SDS011;74765;44.538;18.668;2024-03-02T09:42:51;11.45;;;6.35;;
84523;SDS011;74765;44.538;18.668;2024-03-02T09:45:22;11.57;;;6.30;;
84523;SDS011;74765;44.538;18.668;2024-03-02T09:47:49;10.90;;;5.80;;
84523;SDS011;74765;44.538;18.668;2024-03-02T09:50:15;12.45;;;5.80;;
84523;SDS011;74765;44.538;18.668;2024-03-02T09:52:44;10.57;;;5.70;;
84523;SDS011;74765;44.538;18.668;2024-03-02T09:55:16;9.77;;;4.53;;
84523;SDS011;74765;44.538;18.668;2024-03-02T09:57:43;12.80;;;5.15;;
84523;SDS011;74765;44.538;18.668;2024-03-02T10:00:09;13.30;;;6.18;;
84523;SDS011;74765;44.538;18.668;2024-03-02T10:02:43;12.65;;;5.43;;
84523;SDS011;74765;44.538;18.668;2024-03-02T10:05:09;12.05;;;5.32;;
84523;SDS011;74765;44.538;18.668;2024-03-02T10:07:35;8.40;;;4.53;;
84523;SDS011;74765;44.538;18.668;2024-03-02T10:10:14;10.15;;;5.05;;
84523;SDS011;74765;44.538;18.668;2024-03-02T10:12:40;8.60;;;3.85;;
84523;SDS011;74765;44.538;18.668;2024-03-02T10:15:06;7.35;;;2.92;;
84523;SDS011;74765;44.538;18.668;2024-03-02T10:17:34;6.88;;;2.30;;
84523;SDS011;74765;44.538;18.668;2024-03-02T10:20:21;4.75;;;2.35;;
84523;SDS011;74765;44.538;18.668;2024-03-02T10:22:49;5.25;;;2.78;;
84523;SDS011;74765;44.538;18.668;2024-03-02T10:25:31;8.32;;;2.85;;
84523;SDS011;74765;44.538;18.668;2024-03-02T10:27:58;5.60;;;3.13;;
84523;SDS011;74765;44.538;18.668;2024-03-02T10:30:25;10.15;;;5.05;;
84523;SDS011;74765;44.538;18.668;2024-03-02T10:32:52;7.70;;;4.05;;
84523;SDS011;74765;44.538;18.668;2024-03-02T10:35:19;7.55;;;3.78;;
84523;SDS011;74765;44.538;18.668;2024-03-02T10:37:47;6.35;;;2.85;;
84523;SDS011;74765;44.538;18.668;2024-03-02T10:40:13;6.18;;;2.67;;
84523;SDS011;74765;44.538;18.668;2024-03-02T10:42:39;6.38;;;2.40;;
84523;SDS011;74765;44.538;18.668;2024-03-02T10:45:07;6.45;;;2.85;;
84523;SDS011;74765;44.538;18.668;2024-03-02T10:47:36;5.85;;;2.67;;
84523;SDS011;74765;44.538;18.668;2024-03-02T10:50:04;4.68;;;2.80;;
84523;SDS011;74765;44.538;18.668;2024-03-02T10:52:36;5.80;;;3.00;;
84523;SDS011;74765;44.538;18.668;2024-03-02T10:55:02;8.20;;;2.78;;
84523;SDS011;74765;44.538;18.668;2024-03-02T10:57:40;7.03;;;3.33;;
84523;SDS011;74765;44.538;18.668;2024-03-02T11:00:11;8.23;;;3.05;;
84523;SDS011;74765;44.538;18.668;2024-03-02T11:02:46;10.40;;;4.28;;
84523;SDS011;74765;44.538;18.668;2024-03-02T11:05:26;6.50;;;2.70;;
84523;SDS011;74765;44.538;18.668;2024-03-02T11:07:57;7.18;;;2.65;;
84523;SDS011;74765;44.538;18.668;2024-03-02T11:10:28;6.05;;;2.50;;
84523;SDS011;74765;44.538;18.668;2024-03-02T11:13:10;4.90;;;2.60;;
84523;SDS011;74765;44.538;18.668;2024-03-02T11:15:37;4.63;;;2.50;;
84523;SDS011;74765;44.538;18.668;2024-03-02T11:18:05;6.00;;;2.50;;
84523;SDS011;74765;44.538;18.668;2024-03-02T11:20:35;6.15;;;2.92;;
84523;SDS011;74765;44.538;18.668;2024-03-02T11:23:04;6.57;;;2.60;;
84523;SDS011;74765;44.538;18.668;2024-03-02T11:25:34;13.18;;;3.28;;
84523;SDS011;74765;44.538;18.668;2024-03-02T11:28:07;7.25;;;3.00;;
84523;SDS011;74765;44.538;18.668;2024-03-02T11:33:03;5.75;;;2.80;;
84523;SDS011;74765;44.538;18.668;2024-03-02T11:35:35;6.97;;;2.97;;
84523;SDS011;74765;44.538;18.668;2024-03-02T11:38:02;11.40;;;3.30;;
84523;SDS011;74765;44.538;18.668;2024-03-02T11:40:29;7.85;;;3.38;;
84523;SDS011;74765;44.538;18.668;2024-03-02T11:42:56;10.68;;;3.83;;
84523;SDS011;74765;44.538;18.668;2024-03-02T11:45:24;7.00;;;2.90;;
84523;SDS011;74765;44.538;18.668;2024-03-02T11:47:53;6.93;;;3.45;;
84523;SDS011;74765;44.538;18.668;2024-03-02T11:53:15;11.65;;;2.97;;
84523;SDS011;74765;44.538;18.668;2024-03-02T11:55:41;6.85;;;2.80;;
84523;SDS011;74765;44.538;18.668;2024-03-02T11:58:11;6.13;;;2.53;;
84523;SDS011;74765;44.538;18.668;2024-03-02T12:00:38;8.77;;;3.00;;
84523;SDS011;74765;44.538;18.668;2024-03-02T12:03:07;11.55;;;4.13;;
84523;SDS011;74765;44.538;18.668;2024-03-02T12:05:35;13.52;;;5.47;;
84523;SDS011;74765;44.538;18.668;2024-03-02T12:08:02;6.38;;;2.78;;
84523;SDS011;74765;44.538;18.668;2024-03-02T12:10:29;6.53;;;2.90;;
84523;SDS011;74765;44.538;18.668;2024-03-02T12:12:57;9.15;;;3.13;;
84523;SDS011;74765;44.538;18.668;2024-03-02T12:15:24;5.57;;;2.65;;
84523;SDS011;74765;44.538;18.668;2024-03-02T12:17:55;7.32;;;2.95;;
84523;SDS011;74765;44.538;18.668;2024-03-02T12:20:22;7.68;;;3.22;;
84523;SDS011;74765;44.538;18.668;2024-03-02T12:22:50;7.13;;;3.20;;
84523;SDS011;74765;44.538;18.668;2024-03-02T12:25:18;8.10;;;3.33;;
84523;SDS011;74765;44.538;18.668;2024-03-02T12:27:49;8.07;;;3.33;;
84523;SDS011;74765;44.538;18.668;2024-03-02T12:30:16;9.18;;;2.80;;
84523;SDS011;74765;44.538;18.668;2024-03-02T12:32:43;6.82;;;2.22;;
84523;SDS011;74765;44.538;18.668;2024-03-02T12:35:10;8.38;;;2.35;;
84523;SDS011;74765;44.538;18.668;2024-03-02T12:37:43;6.18;;;3.00;;
84523;SDS011;74765;44.538;18.668;2024-03-02T12:40:13;8.55;;;3.08;;
84523;SDS011;74765;44.538;18.668;2024-03-02T12:42:40;6.97;;;2.88;;
84523;SDS011;74765;44.538;18.668;2024-03-02T12:45:07;7.63;;;2.70;;
84523;SDS011;74765;44.538;18.668;2024-03-02T12:47:37;10.27;;;3.00;;
84523;SDS011;74765;44.538;18.668;2024-03-02T12:50:05;5.90;;;2.85;;
84523;SDS011;74765;44.538;18.668;2024-03-02T12:52:31;7.78;;;2.72;;
84523;SDS011;74765;44.538;18.668;2024-03-02T12:54:58;6.70;;;2.63;;
84523;SDS011;74765;44.538;18.668;2024-03-02T12:57:25;10.02;;;2.75;;
84523;SDS011;74765;44.538;18.668;2024-03-02T13:00:03;8.43;;;3.00;;
84523;SDS011;74765;44.538;18.668;2024-03-02T13:02:41;6.65;;;2.30;;
84523;SDS011;74765;44.538;18.668;2024-03-02T13:05:07;8.10;;;3.22;;
84523;SDS011;74765;44.538;18.668;2024-03-02T13:07:39;10.45;;;3.10;;
84523;SDS011;74765;44.538;18.668;2024-03-02T13:10:06;7.18;;;3.60;;
84523;SDS011;74765;44.538;18.668;2024-03-02T13:12:35;6.30;;;2.70;;
84523;SDS011;74765;44.538;18.668;2024-03-02T13:15:02;8.98;;;3.15;;
84523;SDS011;74765;44.538;18.668;2024-03-02T13:17:29;8.20;;;3.08;;
84523;SDS011;74765;44.538;18.668;2024-03-02T13:19:55;7.32;;;3.00;;
84523;SDS011;74765;44.538;18.668;2024-03-02T13:22:22;6.15;;;3.15;;
84523;SDS011;74765;44.538;18.668;2024-03-02T13:24:51;6.97;;;3.08;;
84523;SDS011;74765;44.538;18.668;2024-03-02T13:27:19;7.25;;;3.47;;
84523;SDS011;74765;44.538;18.668;2024-03-02T13:29:46;7.97;;;2.95;;
84523;SDS011;74765;44.538;18.668;2024-03-02T13:32:15;6.22;;;2.80;;
84523;SDS011;74765;44.538;18.668;2024-03-02T13:34:41;7.30;;;3.25;;
84523;SDS011;74765;44.538;18.668;2024-03-02T13:37:08;5.53;;;2.55;;
84523;SDS011;74765;44.538;18.668;2024-03-02T13:39:34;4.90;;;2.90;;
84523;SDS011;74765;44.538;18.668;2024-03-02T13:42:14;5.97;;;3.20;;
84523;SDS011;74765;44.538;18.668;2024-03-02T13:44:40;7.50;;;3.42;;
84523;SDS011;74765;44.538;18.668;2024-03-02T13:47:10;6.78;;;3.78;;
84523;SDS011;74765;44.538;18.668;2024-03-02T13:49:36;10.05;;;4.78;;
84523;SDS011;74765;44.538;18.668;2024-03-02T13:52:03;9.25;;;4.13;;
84523;SDS011;74765;44.538;18.668;2024-03-02T13:54:39;7.00;;;3.95;;
84523;SDS011;74765;44.538;18.668;2024-03-02T13:57:08;6.05;;;3.25;;
84523;SDS011;74765;44.538;18.668;2024-03-02T13:59:35;6.28;;;2.80;;
84523;SDS011;74765;44.538;18.668;2024-03-02T14:02:01;6.57;;;3.28;;
84523;SDS011;74765;44.538;18.668;2024-03-02T14:04:36;4.70;;;2.60;;
84523;SDS011;74765;44.538;18.668;2024-03-02T14:07:02;5.68;;;2.92;;
84523;SDS011;74765;44.538;18.668;2024-03-02T14:09:28;6.65;;;3.45;;
84523;SDS011;74765;44.538;18.668;2024-03-02T14:11:54;6.20;;;3.25;;
84523;SDS011;74765;44.538;18.668;2024-03-02T14:14:21;9.07;;;3.92;;
84523;SDS011;74765;44.538;18.668;2024-03-02T14:16:48;6.20;;;3.53;;
84523;SDS011;74765;44.538;18.668;2024-03-02T14:19:13;7.45;;;3.78;;
84523;SDS011;74765;44.538;18.668;2024-03-02T14:21:39;9.32;;;3.45;;
84523;SDS011;74765;44.538;18.668;2024-03-02T14:24:05;6.22;;;3.88;;
84523;SDS011;74765;44.538;18.668;2024-03-02T14:26:35;6.30;;;3.00;;